CheckWX is a tool to help pilots better visualize weather data.  It is not intended as a substitute for an official pre-flight weather briefing.

02:00:25 UTC

KMIB TAF
Minot AFB Airport
Minot, North Dakota, USA
TAF KMIB 190100Z 1901/2007 30007KT 9999 BKN080 QNH3004INS BECMG 1906/1907 30010KT 0800 FZFG OVC005 620105 QNH3015INS TEMPO 1912/1916 0600 FZDZ FZFG 660002 BECMG 1916/1917 26010G15KT 4800 BR BKN005 QNH3002INS BECMG 1920/1921 26009KT 9999 NSW SCT010 QNH2998INS BECMG 2002/2003 31009KT 8000 BR FEW030 QNH3000INS TX02/2000Z TNM05/1915Z

Mar-19@
01:00 UTC

Mar-19 @ 01:00 UTC

Mar-19@
06:00 UTC

Mar-19 @ 06:00 UTC

TAF KMIB 190100Z 1901/2007 30007KT 9999 BKN080 QNH3004INS
Wind
  • 300° at 7 KTS
Cloud Levels
  • Broken at 8,000' AGL

Mar-19@
06:00 UTC

Mar-19 @ 06:00 UTC

Mar-19@
16:00 UTC

Mar-19 @ 16:00 UTC

BECMG 1906/1907 30010KT 0800 FZFG OVC005 620105 QNH3015INS

Becoming

Becoming Conditions expected by Tue, Mar 19, 2019 @ 07:00 UTC

Wind
  • 300° at 10 KTS
Conditions
Freezing Fog
Cloud Levels
  • Overcast at 500' AGL
Icing
Light icing in cloud expected at 1,000' AGL extending to 6,000' AGL

Mar-19@
12:00 UTC

Mar-19 @ 12:00 UTC

Mar-19@
16:00 UTC

Mar-19 @ 16:00 UTC

TEMPO 1912/1916 0600 FZDZ FZFG 660002

Temporary

Temporary Changes expected for less than half the time period

Conditions
Freezing Drizzle, Freezing Fog
Icing
Moderate icing in precipitation expected at the surface extending to 2,000' AGL

Mar-19@
16:00 UTC

Mar-19 @ 16:00 UTC

Mar-19@
20:00 UTC

Mar-19 @ 20:00 UTC

BECMG 1916/1917 26010G15KT 4800 BR BKN005 QNH3002INS

Becoming

Becoming Conditions expected by Tue, Mar 19, 2019 @ 17:00 UTC

Wind
  • 260° at 10 KTS
  • {Gusting to 15 KTS
Conditions
Mist
Cloud Levels
  • Broken at 500' AGL

Mar-19@
20:00 UTC

Mar-19 @ 20:00 UTC

Mar-20@
02:00 UTC

Mar-20 @ 02:00 UTC

BECMG 1920/1921 26009KT 9999 NSW SCT010 QNH2998INS

Becoming

Becoming Conditions expected by Tue, Mar 19, 2019 @ 21:00 UTC

Wind
  • 260° at 9 KTS
Conditions
No significant weather
Cloud Levels
  • Scattered at 1,000' AGL

Mar-20@
02:00 UTC

Mar-20 @ 02:00 UTC

Mar-20@
07:00 UTC

Mar-20 @ 07:00 UTC

BECMG 2002/2003 31009KT 8000 BR FEW030 QNH3000INS TX02/2000Z TNM05/1915Z

Becoming

Becoming Conditions expected by Wed, Mar 20, 2019 @ 03:00 UTC

Wind
  • 310° at 9 KTS
Conditions
Mist
Cloud Levels
  • Few at 3,000' AGL